Aérodrome :
LOGIN :

S'inscrire | Disclaimer

   EN    FR    IT 

 










Légende :    VFR   VFR Marginal   IFR   IFR Intensif   IFR Très Intensif
Visi : 
Plafond : 
>= 8 km
>= 3000ft
5 à 8 km
1000 à 3000 ft
1500m à 5 km
500 à 1000 ft
800 à 1500m
200 à 500 ft
< 800m
< 200 ft
Symboles :   Orages  Brouillard  Fortes neiges  Fortes précipitations  Vent > 20 kt
SIGMETs :   Divers  Orages  Givrage  Turbulence  Onde Orograph.  Cendres Volcan.







- Altitude de l'aérodrome : 2776 ft
- Code IATA : VLL


LEVD - Valladolid

DERNIER METAR :
  • 221430Z 28014KT 9999 DZ BKN007 OVC020 04/03 Q1014

METARs EXPIRÉS :
  • 221400Z 27013KT 9999 BKN008 OVC030 04/03 Q1014 REDZ
  • 221330Z 27012KT 9999 DZ BKN008 OVC029 04/03 Q1015
  • 221300Z 27013KT 9999 DZ SCT007 OVC028 04/03 Q1015
  • 221230Z 25013KT 9999 SCT006 BKN027 04/03 Q1015
  • 221200Z 25015KT 9999 BKN028 OVC039 03/02 Q1016

TAF TAF LEVD
Valide du 22 à 12h jusqu'au 23 à 12h UTC


221100Z 2212/2312 26014KT 9999 BKN025 BKN040 TX06/2215Z TN01/2302Z
TEMPO 2212/2219 3000 DZRA BKN012
PROB30
TEMPO 2212/2218 3000 -SNRA BKN008
Pas de NOTAMs connus pour ce terrain.
1 SIGMET publié pour la FIR Madrid (LECM) :
 
Onde orographique forte
LECM SIGMET 3 VALID 221300/221700 LEVA
LECM MADRID FIR/UIR SEV MTW FCST N OF LINE N4240 W001 - N4230 E00010 FL060/360 STNR NC=



MET'MAP, la Météo Aéronautique d'un coup d'oeil ! - Copyright ORBIFLY Décembre 2007 - Disclaimer

ORBIFLY MET'MAP TEAM :

Programmation & Développement : Alexandra Zaïnal
Conception & Développement : Baudouin d'Aumeries
Co-Programmation & Développement : Marc-Olivier Méhu
Soutien technique & logistique : Manuel Goepfert

Contact : metmap@orbifly.com




SOURCES & CREDITS :

   NOAA